KLGB/LGB METAR and TAF weather

Enter ICAO airport designator
Station Type Date Time Source
KLGB METAR 2021/09/16 20:53 UTC NOAA

KLGB 162053Z 23009KT 10SM CLR 22/13 A2987 RMK AO2 SLP114 T02220128 57011


Station Type Date Time Source
KLGB Decoded METAR 2021/09/16 20:53 UTC NOAA

LONG BEACH AIRPORT, CA, United States (KLGB) 33-49N 118-09W 10M
Sep 16, 2021 - 04:53 PM EDT / 2021.09.16 2053 UTC
Wind: from the SW (230 degrees) at 10 MPH (9 KT):0
Visibility: 10 mile(s):0
Sky conditions: clear
Temperature: 72.0 F (22.2 C)
Dew Point: 55.0 F (12.8 C)
Relative Humidity: 55%
Pressure (altimeter): 29.87 in. Hg (1011 hPa)
Pressure tendency: 0.03 inches (1.1 hPa) lower than three hours ago
ob: KLGB 162053Z 23009KT 10SM CLR 22/13 A2987 RMK AO2 SLP114 T02220128 57011
cycle: 21

Station Type Date Time Source
KLGB TAF 2021/09/16 18:45 UTC NOAA

TAF KLGB 161742Z 1618/1718 20008KT P6SM SCT020
FM162300 30008KT P6SM SKC
FM170500 VRB03KT P6SM SKC
FM170700 VRB03KT P6SM OVC016
FM171500 VRB03KT P6SM OVC025

Example: see airport list